Time;durP1;ratioP1;P1;durP2;ratioP2;P2;SDS_P1;SDS_P2;PMS_P1;PMS_P2;Temp;Humidity;BMP_temperature;BMP_pressure;BME280_temperature;BME280_humidity;BME280_pressure;Samples;Min_cycle;Max_cycle;Signal;HPM_P1;HPM_P2
2022/11/15 00:00:32;;;;;;;115.57;61.03;;;;;;;5.94;94.22;95469.28;5093382;28;21009;-75
2022/11/15 00:02:58;;;;;;;116.30;61.27;;;;;;;5.87;94.38;95478.34;5074866;28;20448;-75
2022/11/15 00:05:25;;;;;;;115.50;59.50;;;;;;;5.81;94.88;95474.34;5093689;28;20445;-75
2022/11/15 00:07:52;;;;;;;126.87;64.67;;;;;;;5.84;94.68;95475.94;5093715;28;20437;-76
2022/11/15 00:10:19;;;;;;;129.93;69.00;;;;;;;5.83;95.12;95482.91;5093499;28;20444;-75
2022/11/15 00:12:46;;;;;;;132.50;71.10;;;;;;;5.83;94.80;95475.09;5093927;28;20520;-75
2022/11/15 00:15:12;;;;;;;142.53;71.97;;;;;;;5.80;94.13;95482.25;5093727;28;20502;-75
2022/11/15 00:17:40;;;;;;;177.77;88.67;;;;;;;5.78;94.71;95474.53;5093766;28;20494;-76
2022/11/15 00:20:09;;;;;;;177.57;85.90;;;;;;;5.79;95.37;95478.81;5093693;28;20500;-75
2022/11/15 00:22:35;;;;;;;154.87;81.67;;;;;;;5.76;94.05;95470.28;5093536;28;20494;-75
2022/11/15 00:25:06;;;;;;;169.13;84.67;;;;;;;5.79;94.24;95464.94;5093005;28;20923;-75
2022/11/15 00:27:33;;;;;;;176.17;88.03;;;;;;;5.81;95.08;95471.75;5057465;28;20440;-75
2022/11/15 00:30:00;;;;;;;163.43;83.73;;;;;;;5.81;93.70;95466.53;5073985;28;20445;-74
2022/11/15 00:32:26;;;;;;;159.90;80.57;;;;;;;5.81;93.77;95470.91;5093574;28;20527;-75
2022/11/15 00:34:54;;;;;;;153.87;80.67;;;;;;;5.72;93.65;95468.78;5093062;28;20455;-76
2022/11/15 00:37:21;;;;;;;154.13;81.80;;;;;;;5.66;93.48;95463.94;5093062;28;20478;-75
2022/11/15 00:39:48;;;;;;;166.43;83.40;;;;;;;5.63;93.27;95466.72;5093305;28;20440;-75
2022/11/15 00:42:15;;;;;;;162.87;79.67;;;;;;;5.61;93.06;95456.41;5092701;28;21014;-76
2022/11/15 00:44:41;;;;;;;149.00;76.07;;;;;;;5.54;92.75;95460.28;5093007;28;20826;-75
2022/11/15 00:47:08;;;;;;;139.00;68.37;;;;;;;5.48;92.67;95461.44;5093032;28;20813;-75
2022/11/15 00:49:35;;;;;;;158.30;77.20;;;;;;;5.41;91.74;95460.09;5092736;28;20443;-75
2022/11/15 00:52:03;;;;;;;139.73;68.77;;;;;;;5.39;92.42;95455.91;5096060;28;20988;-74
2022/11/15 00:54:30;;;;;;;140.00;71.90;;;;;;;5.39;91.84;95455.91;5074332;28;20437;-74
2022/11/15 00:56:57;;;;;;;126.07;68.00;;;;;;;5.40;92.34;95449.78;5092863;28;20498;-75
2022/11/15 00:59:24;;;;;;;157.37;72.87;;;;;;;5.41;91.48;95460.09;5092402;28;20519;-75
2022/11/15 01:01:50;;;;;;;141.27;70.80;;;;;;;5.40;92.07;95453.22;5092875;28;20482;-75
2022/11/15 01:04:17;;;;;;;154.07;68.77;;;;;;;5.42;91.83;95446.16;5092541;28;20444;-74
2022/11/15 01:06:44;;;;;;;133.83;66.40;;;;;;;5.42;91.43;95448.75;5092540;28;20858;-75
2022/11/15 01:09:13;;;;;;;140.87;68.37;;;;;;;5.42;92.13;95451.38;5092895;28;21088;-75
2022/11/15 01:11:40;;;;;;;138.83;64.40;;;;;;;5.45;92.58;95445.16;5057084;28;20835;-75
2022/11/15 01:14:07;;;;;;;130.77;64.10;;;;;;;5.46;91.68;95444.22;5092496;28;20512;-75
2022/11/15 01:16:34;;;;;;;151.50;68.33;;;;;;;5.37;92.24;95447.34;5092450;28;20938;-75
2022/11/15 01:19:01;;;;;;;137.63;65.80;;;;;;;5.29;91.55;95446.00;5092182;28;20863;-74
2022/11/15 01:21:28;;;;;;;134.67;65.73;;;;;;;5.25;91.62;95439.31;5056858;28;20489;-75
2022/11/15 01:23:55;;;;;;;173.70;65.47;;;;;;;5.26;91.67;95438.38;5092563;28;20451;-74
2022/11/15 01:26:24;;;;;;;160.30;67.23;;;;;;;5.26;92.69;95437.53;5092080;28;20532;-74
2022/11/15 01:28:51;;;;;;;131.87;66.53;;;;;;;5.27;93.21;95436.63;5092251;28;20498;-74
2022/11/15 01:31:20;;;;;;;133.13;64.37;;;;;;;5.27;93.51;95436.63;5092109;28;20448;-75
2022/11/15 01:33:48;;;;;;;123.43;57.83;;;;;;;5.25;92.01;95434.09;5092269;28;20846;-75
2022/11/15 01:36:16;;;;;;;134.17;64.93;;;;;;;5.28;93.57;95438.31;5091977;28;20513;-75
2022/11/15 01:38:43;;;;;;;137.70;64.03;;;;;;;5.26;93.61;95438.38;5092267;28;20447;-75
2022/11/15 01:41:17;;;;;;;120.60;59.43;;;;;;;5.30;93.36;95436.44;5091943;28;20542;-74
2022/11/15 01:43:45;;;;;;;136.70;64.23;;;;;;;5.32;94.62;95437.19;5092098;28;20885;-75
2022/11/15 01:46:26;;;;;;;147.30;73.43;;;;;;;5.32;93.84;95429.41;5072749;28;20841;-75
2022/11/15 01:48:55;;;;;;;154.97;70.03;;;;;;;5.31;93.15;95438.13;5092220;28;20861;-76
2022/11/15 01:51:25;;;;;;;152.20;65.80;;;;;;;5.26;92.58;95441.00;5091937;28;20531;-75
2022/11/15 01:53:56;;;;;;;176.63;69.80;;;;;;;4.92;93.23;95439.38;5091814;28;20573;-75
2022/11/15 01:56:26;;;;;;;148.33;67.30;;;;;;;4.79;94.92;95434.91;5055952;28;20817;-76
2022/11/15 01:58:57;;;;;;;183.40;64.80;;;;;;;4.78;94.75;95434.06;5092278;28;20448;-75
2022/11/15 02:01:26;;;;;;;166.90;65.07;;;;;;;4.69;94.32;95431.13;5091304;28;20978;-75
2022/11/15 02:03:58;;;;;;;202.73;60.33;;;;;;;4.60;94.13;95429.84;5056248;28;20432;-75
2022/11/15 02:06:24;;;;;;;99.50;48.67;;;;;;;4.35;94.95;95440.69;5091795;28;20459;-74
2022/11/15 02:08:52;;;;;;;235.57;55.33;;;;;;;4.41;95.20;95434.34;5091702;28;20543;-75
2022/11/15 02:11:19;;;;;;;140.03;51.13;;;;;;;4.38;96.74;95430.16;5091469;28;20958;-75
2022/11/15 02:13:46;;;;;;;120.37;48.67;;;;;;;4.35;97.25;95423.34;5091856;28;20938;-75
2022/11/15 02:16:28;;;;;;;101.57;49.50;;;;;;;4.33;97.39;95430.34;5091457;28;20854;-75
2022/11/15 02:19:00;;;;;;;144.20;51.83;;;;;;;4.37;96.97;95430.22;5055923;28;20439;-75
2022/11/15 02:21:34;;;;;;;195.83;51.70;;;;;;;4.40;98.01;95430.06;5091237;28;20541;-75
2022/11/15 02:24:42;;;;;;;212.40;53.90;;;;;;;4.37;97.93;95427.63;5091799;28;20560;-75
2022/11/15 02:27:39;;;;;;;122.40;48.73;;;;;;;4.15;98.81;95428.72;5048993;28;20956;-75
2022/11/15 02:30:20;;;;;;;138.70;50.50;;;;;;;4.06;99.46;95420.56;5048811;28;20859;-75
2022/11/15 02:32:51;;;;;;;137.60;52.43;;;;;;;4.07;99.36;95425.69;5048885;28;20450;-76
2022/11/15 02:35:29;;;;;;;136.57;46.93;;;;;;;3.88;100.00;95419.72;5048781;28;20446;-75
2022/11/15 02:37:58;;;;;;;221.53;54.07;;;;;;;3.85;100.00;95428.53;5048781;28;20453;-75
2022/11/15 02:40:35;;;;;;;190.47;51.87;;;;;;;3.93;100.00;95422.94;5031945;28;20859;-75
2022/11/15 02:45:59;;;;;;;219.70;53.27;;;;;;;4.06;100.00;95424.00;5034609;28;20429;-75
2022/11/15 02:48:27;;;;;;;127.17;47.83;;;;;;;3.92;100.00;95418.66;5052185;28;20499;-75
2022/11/15 02:50:54;;;;;;;146.17;49.27;;;;;;;3.97;100.00;95427.06;5052460;28;20840;-75
2022/11/15 02:53:25;;;;;;;112.37;47.93;;;;;;;4.03;100.00;95429.34;5052505;28;20437;-75
2022/11/15 02:55:54;;;;;;;154.30;49.20;;;;;;;4.07;100.00;95427.44;5052411;28;20479;-76
2022/11/15 02:58:43;;;;;;;179.10;48.10;;;;;;;4.19;100.00;95432.00;5052411;28;20491;-75
2022/11/15 03:01:22;;;;;;;114.80;43.97;;;;;;;4.28;100.00;95424.56;4960018;28;20500;-75
2022/11/15 03:03:58;;;;;;;187.03;50.60;;;;;;;4.22;100.00;95430.09;5013893;28;20446;-75
2022/11/15 03:06:34;;;;;;;166.17;45.87;;;;;;;4.16;100.00;95429.56;5032217;28;20905;-74
2022/11/15 03:09:08;;;;;;;157.97;48.47;;;;;;;4.13;100.00;95429.72;5032195;28;20854;-75
2022/11/15 03:11:38;;;;;;;179.33;50.43;;;;;;;4.13;100.00;95427.97;5032069;28;20460;-75
2022/11/15 03:14:19;;;;;;;108.37;44.97;;;;;;;4.20;100.00;95428.50;5032115;28;20496;-75
2022/11/15 03:16:52;;;;;;;148.17;48.07;;;;;;;4.29;100.00;95423.66;5032118;28;20512;-74
2022/11/15 03:19:26;;;;;;;69.63;41.30;;;;;;;4.33;100.00;95422.56;5031961;28;20473;-75
2022/11/15 03:21:57;;;;;;;113.50;42.77;;;;;;;4.36;100.00;95432.00;5032063;28;20516;-75
2022/11/15 03:24:25;;;;;;;111.40;44.67;;;;;;;4.34;100.00;95424.28;5031603;28;21000;-74
2022/11/15 03:26:54;;;;;;;70.70;42.40;;;;;;;4.38;100.00;95418.91;5031893;28;20878;-75
2022/11/15 03:29:26;;;;;;;81.03;43.10;;;;;;;4.40;100.00;95430.91;5031879;28;20508;-75
2022/11/15 03:31:59;;;;;;;85.57;44.40;;;;;;;4.42;99.11;95423.88;5031699;28;20521;-74
2022/11/15 03:34:33;;;;;;;129.17;46.87;;;;;;;4.41;98.70;95408.34;5031821;28;20442;-74
2022/11/15 03:37:00;;;;;;;116.70;43.77;;;;;;;4.34;98.70;95418.25;5031815;28;20556;-75
2022/11/15 03:39:28;;;;;;;78.40;43.50;;;;;;;4.16;98.19;95414.81;5088337;28;20452;-75
2022/11/15 03:42:04;;;;;;;104.57;42.40;;;;;;;3.76;100.00;95405.63;5094257;28;20479;-75
2022/11/15 03:44:41;;;;;;;115.67;41.00;;;;;;;3.62;100.00;95393.31;5094063;28;20447;-75
2022/11/15 03:47:14;;;;;;;102.13;44.90;;;;;;;3.64;100.00;95404.47;5094403;28;20539;-76
2022/11/15 03:49:45;;;;;;;102.53;45.37;;;;;;;3.58;100.00;95397.00;5094129;28;20842;-74
2022/11/15 03:52:12;;;;;;;99.40;44.43;;;;;;;3.61;100.00;95396.00;5094140;28;20564;-75
2022/11/15 03:54:49;;;;;;;140.13;44.60;;;;;;;3.64;100.00;95401.88;5075115;28;20435;-75
2022/11/15 03:57:16;;;;;;;115.60;43.97;;;;;;;3.63;100.00;95397.59;5093834;28;20435;-75
2022/11/15 03:59:43;;;;;;;149.30;46.00;;;;;;;3.63;100.00;95400.19;5093399;28;20476;-75
2022/11/15 04:02:11;;;;;;;95.90;46.10;;;;;;;3.66;100.00;95394.84;5093860;28;20483;-75
2022/11/15 04:04:38;;;;;;;127.67;41.27;;;;;;;3.59;100.00;95388.28;5094041;28;20448;-75
2022/11/15 04:07:05;;;;;;;81.60;36.17;;;;;;;3.23;100.00;95396.13;5093660;28;20447;-75
2022/11/15 04:09:32;;;;;;;123.53;33.93;;;;;;;3.18;100.00;95385.13;5093829;28;20440;-75
2022/11/15 04:11:59;;;;;;;82.90;32.90;;;;;;;3.22;100.00;95399.63;5093702;28;20944;-75
2022/11/15 04:14:26;;;;;;;144.27;35.13;;;;;;;3.24;100.00;95394.38;5058182;28;20953;-75
2022/11/15 04:16:53;;;;;;;76.20;31.90;;;;;;;3.18;100.00;95389.44;5074449;28;20443;-75
2022/11/15 04:24:49;;;;;;;81.07;29.83;;;;;;;3.49;100.00;95387.06;5093290;28;20427;-76
2022/11/15 04:27:15;;;;;;;57.57;27.20;;;;;;;3.52;100.00;95389.50;5093770;28;20851;-75
2022/11/15 04:29:42;;;;;;;65.87;27.93;;;;;;;3.60;100.00;95374.41;5093424;28;20452;-75
2022/11/15 04:32:09;;;;;;;62.37;30.37;;;;;;;3.79;100.00;95378.69;5093420;28;20441;-76
2022/11/15 04:34:38;;;;;;;52.17;28.30;;;;;;;3.92;100.00;95375.38;5093300;28;20504;-75
2022/11/15 04:37:13;;;;;;;70.63;27.17;;;;;;;4.07;100.00;95378.09;5093106;28;20443;-76
2022/11/15 04:39:41;;;;;;;70.80;27.87;;;;;;;4.19;100.00;95380.06;5093052;28;20454;-75
2022/11/15 04:42:08;;;;;;;59.73;27.10;;;;;;;4.34;100.00;95380.13;5093028;28;20513;-75
2022/11/15 04:44:34;;;;;;;52.13;26.70;;;;;;;4.49;100.00;95385.41;5093392;28;20591;-75
2022/11/15 04:47:02;;;;;;;51.03;26.53;;;;;;;4.57;100.00;95389.25;5092960;28;20444;-75
2022/11/15 04:49:29;;;;;;;70.40;31.40;;;;;;;4.67;100.00;95384.44;5092791;28;20440;-75
2022/11/15 04:51:57;;;;;;;61.13;30.97;;;;;;;4.75;100.00;95377.06;5093013;28;20459;-75
2022/11/15 04:54:23;;;;;;;80.53;35.40;;;;;;;4.78;100.00;95382.09;5092893;28;20999;-75
2022/11/15 04:56:50;;;;;;;60.23;34.63;;;;;;;4.82;100.00;95381.00;5092919;28;20466;-75
2022/11/15 04:59:17;;;;;;;84.40;37.67;;;;;;;4.83;100.00;95380.06;5092869;28;20856;-75
2022/11/15 05:01:44;;;;;;;114.93;39.37;;;;;;;4.85;100.00;95380.81;5092351;28;20499;-75
2022/11/15 05:04:18;;;;;;;77.33;33.47;;;;;;;4.82;100.00;95383.59;5092451;28;20858;-74
2022/11/15 05:06:45;;;;;;;78.60;32.93;;;;;;;4.76;100.00;95388.28;5092572;28;20447;-75
2022/11/15 05:09:14;;;;;;;69.10;32.13;;;;;;;4.76;100.00;95389.13;5091737;28;20903;-74
2022/11/15 05:11:41;;;;;;;66.70;31.03;;;;;;;4.75;100.00;95394.41;5091726;28;20841;-75
2022/11/15 05:14:08;;;;;;;66.70;31.80;;;;;;;4.76;100.00;95394.31;5056556;28;20927;-75
2022/11/15 05:16:35;;;;;;;66.40;29.60;;;;;;;4.74;100.00;95390.97;5092224;28;20456;-75
2022/11/15 05:19:02;;;;;;;60.47;32.00;;;;;;;4.76;100.00;95391.72;5091932;28;20436;-74
2022/11/15 05:21:29;;;;;;;60.00;32.40;;;;;;;4.83;100.00;95387.88;5091556;28;20894;-74
2022/11/15 05:23:55;;;;;;;88.30;34.83;;;;;;;4.85;100.00;95391.22;5092352;28;20851;-75
2022/11/15 05:26:23;;;;;;;94.13;48.50;;;;;;;4.89;100.00;95389.28;5092874;28;20485;-76
2022/11/15 05:28:54;;;;;;;84.43;41.03;;;;;;;4.94;100.00;95393.34;5088848;28;20503;-76
2022/11/15 05:31:21;;;;;;;50.33;30.80;;;;;;;4.93;100.00;95393.41;5086877;28;20877;-76
2022/11/15 05:33:50;;;;;;;72.20;34.23;;;;;;;4.91;100.00;95396.06;5092185;28;20451;-76
2022/11/15 05:36:23;;;;;;;67.40;33.77;;;;;;;4.93;100.00;95394.25;5043325;28;20468;-76
2022/11/15 05:38:50;;;;;;;61.83;30.43;;;;;;;4.93;100.00;95389.06;5084366;28;20885;-76
2022/11/15 05:41:20;;;;;;;52.63;25.40;;;;;;;4.93;100.00;95399.47;5076802;28;20562;-76
2022/11/15 05:43:49;;;;;;;57.10;27.70;;;;;;;5.00;100.00;95391.31;5086163;28;20480;-76
2022/11/15 05:46:17;;;;;;;43.17;23.27;;;;;;;5.01;100.00;95387.78;5089963;28;20466;-77
2022/11/15 05:48:48;;;;;;;42.87;24.37;;;;;;;5.02;100.00;95389.47;5091367;28;20443;-76
2022/11/15 05:51:18;;;;;;;45.70;24.10;;;;;;;5.03;100.00;95391.97;5082534;28;20502;-75
2022/11/15 05:53:46;;;;;;;54.20;27.37;;;;;;;5.06;100.00;95399.63;5086778;28;20949;-76
2022/11/15 05:56:14;;;;;;;48.77;25.70;;;;;;;5.12;100.00;95393.22;5056866;28;20458;-76
2022/11/15 05:58:41;;;;;;;53.67;26.10;;;;;;;5.19;100.00;95397.16;5093067;28;20834;-75
2022/11/15 06:01:10;;;;;;;51.13;26.03;;;;;;;5.28;100.00;95396.66;5092430;28;20467;-75
2022/11/15 06:03:37;;;;;;;48.70;26.57;;;;;;;5.36;100.00;95389.25;5092394;28;20892;-78
2022/11/15 06:06:04;;;;;;;41.47;21.83;;;;;;;5.41;100.00;95386.41;5092751;28;20477;-77
2022/11/15 06:08:30;;;;;;;41.83;21.83;;;;;;;5.45;100.00;95390.50;5092204;28;20452;-77
2022/11/15 06:10:57;;;;;;;40.77;22.40;;;;;;;5.51;100.00;95383.19;5092676;28;20444;-77
2022/11/15 06:13:24;;;;;;;47.53;23.97;;;;;;;5.60;100.00;95389.63;5092960;28;20445;-79
2022/11/15 06:15:51;;;;;;;51.30;25.87;;;;;;;5.55;100.00;95394.28;5092852;28;20437;-78
2022/11/15 06:18:19;;;;;;;50.63;28.27;;;;;;;5.56;99.98;95394.19;5092298;28;20447;-76
2022/11/15 06:20:46;;;;;;;60.20;31.97;;;;;;;5.55;100.00;95384.69;5091676;28;20462;-76
2022/11/15 06:23:13;;;;;;;66.03;31.50;;;;;;;5.82;100.00;95394.44;5095376;28;20481;-76
2022/11/15 06:25:39;;;;;;;74.30;33.03;;;;;;;5.88;99.57;95402.75;5096638;28;20491;-76
2022/11/15 06:28:06;;;;;;;70.57;36.07;;;;;;;5.92;99.04;95405.19;5096814;28;20803;-76
2022/11/15 06:30:33;;;;;;;66.27;33.70;;;;;;;5.90;98.00;95398.31;5096311;28;20446;-76
2022/11/15 06:33:02;;;;;;;61.00;30.70;;;;;;;5.92;96.99;95395.63;5094618;28;20971;-76
2022/11/15 06:35:31;;;;;;;61.23;27.87;;;;;;;5.93;96.78;95396.44;5094326;28;20532;-76
2022/11/15 06:38:03;;;;;;;61.20;29.10;;;;;;;5.92;97.80;95397.38;5076009;28;21163;-75
2022/11/15 06:40:30;;;;;;;51.83;28.97;;;;;;;5.92;97.45;95392.16;5078932;28;20460;-76
2022/11/15 06:42:59;;;;;;;53.03;26.70;;;;;;;5.88;98.82;95384.50;5078436;28;20524;-73
2022/11/15 06:45:26;;;;;;;72.40;28.47;;;;;;;5.92;99.85;95392.16;5085749;28;20836;-74
2022/11/15 06:47:52;;;;;;;63.93;26.50;;;;;;;5.89;99.98;95395.75;5092142;28;20500;-73
2022/11/15 06:50:19;;;;;;;60.27;28.40;;;;;;;5.86;100.00;95388.13;5079843;28;20459;-73
2022/11/15 06:52:47;;;;;;;58.60;27.63;;;;;;;5.84;100.00;95392.59;5039456;28;20439;-74
2022/11/15 06:55:14;;;;;;;80.17;26.67;;;;;;;5.78;100.00;95385.13;5075099;28;20787;-74
2022/11/15 06:57:48;;;;;;;72.87;23.13;;;;;;;5.59;100.00;95385.34;5089705;28;20450;-74
2022/11/15 07:00:17;;;;;;;51.90;21.47;;;;;;;5.57;100.00;95387.22;5080951;28;20562;-75
2022/11/15 07:02:43;;;;;;;48.97;22.30;;;;;;;5.38;100.00;95397.81;5094988;28;20545;-74
2022/11/15 07:05:10;;;;;;;44.93;21.20;;;;;;;5.45;100.00;95391.34;5074582;28;20472;-75
2022/11/15 07:07:37;;;;;;;42.33;22.00;;;;;;;5.48;100.00;95385.94;5082689;28;20815;-75
2022/11/15 07:10:07;;;;;;;46.80;24.60;;;;;;;5.31;100.00;95380.88;5091336;28;21046;-75
2022/11/15 07:12:34;;;;;;;47.17;23.80;;;;;;;5.21;100.00;95384.94;5081075;28;20521;-75
2022/11/15 07:15:01;;;;;;;44.20;23.80;;;;;;;5.18;100.00;95380.72;5079507;28;20464;-74
2022/11/15 07:17:27;;;;;;;46.93;24.57;;;;;;;5.16;100.00;95387.75;5080439;28;20498;-76
2022/11/15 07:19:54;;;;;;;61.93;24.03;;;;;;;5.34;100.00;95375.50;5084052;28;20441;-76
2022/11/15 07:22:21;;;;;;;54.13;26.20;;;;;;;5.33;100.00;95379.03;5079568;28;20485;-75
2022/11/15 07:24:48;;;;;;;57.67;25.30;;;;;;;5.38;100.00;95376.16;5088751;28;20858;-75
2022/11/15 07:27:16;;;;;;;66.37;26.80;;;;;;;5.44;100.00;95375.81;5095096;28;20853;-75
2022/11/15 07:29:42;;;;;;;54.37;22.80;;;;;;;5.49;100.00;95376.38;5094324;28;20448;-75
2022/11/15 07:32:10;;;;;;;55.00;26.60;;;;;;;5.35;100.00;95371.97;5094455;28;20505;-75
2022/11/15 07:34:37;;;;;;;67.70;27.30;;;;;;;5.38;100.00;95374.41;5094150;28;20538;-75
2022/11/15 07:37:03;;;;;;;46.10;26.67;;;;;;;5.39;100.00;95373.47;5094192;28;20486;-76
2022/11/15 07:39:30;;;;;;;60.77;27.13;;;;;;;5.45;100.00;95375.72;5094649;28;20445;-76
2022/11/15 07:44:39;;;;;;;89.83;28.00;;;;;;;5.53;100.00;95375.31;5092316;28;20444;-75
2022/11/15 07:47:05;;;;;;;53.10;25.53;;;;;;;5.49;100.00;95374.66;5094489;28;20441;-75
2022/11/15 07:49:32;;;;;;;58.43;27.77;;;;;;;5.53;100.00;95365.72;5094195;28;20436;-75
2022/11/15 07:51:59;;;;;;;66.57;33.77;;;;;;;5.56;100.00;95375.97;5093851;28;20443;-75
2022/11/15 07:54:26;;;;;;;75.40;31.97;;;;;;;5.56;100.00;95375.13;5094132;28;20489;-75
2022/11/15 07:56:53;;;;;;;71.10;31.87;;;;;;;5.62;100.00;95373.94;5094229;28;20542;-75
2022/11/15 07:59:20;;;;;;;65.03;30.80;;;;;;;5.68;100.00;95378.78;5093782;28;20449;-75
2022/11/15 08:01:48;;;;;;;57.83;28.07;;;;;;;5.78;100.00;95369.50;5094214;28;21035;-75
2022/11/15 08:04:15;;;;;;;71.93;31.50;;;;;;;5.86;100.00;95380.31;5094032;28;20556;-74
2022/11/15 08:06:42;;;;;;;59.77;27.87;;;;;;;5.81;100.00;95369.34;5094018;28;20468;-75
2022/11/15 08:09:09;;;;;;;54.40;30.23;;;;;;;5.80;100.00;95373.72;5093932;28;20456;-74
2022/11/15 08:11:35;;;;;;;72.80;28.37;;;;;;;5.83;100.00;95370.94;5093722;28;20485;-75
2022/11/15 08:14:02;;;;;;;57.30;28.67;;;;;;;5.86;100.00;95377.72;5093820;28;20466;-75
2022/11/15 08:16:29;;;;;;;67.33;29.87;;;;;;;5.92;100.00;95376.53;5093699;28;20534;-74
2022/11/15 08:18:57;;;;;;;60.60;28.70;;;;;;;6.02;100.00;95369.84;5093870;28;20498;-75
2022/11/15 08:21:24;;;;;;;67.60;29.10;;;;;;;6.08;100.00;95369.53;5074430;28;20433;-75
2022/11/15 08:23:51;;;;;;;54.27;30.30;;;;;;;6.07;100.00;95366.06;5093260;28;20479;-75
2022/11/15 08:26:18;;;;;;;65.40;33.70;;;;;;;6.02;100.00;95370.69;5093705;28;20447;-74
2022/11/15 08:28:45;;;;;;;64.70;32.40;;;;;;;6.04;100.00;95363.63;5057826;28;20829;-75
2022/11/15 08:31:15;;;;;;;54.20;30.63;;;;;;;6.07;100.00;95366.06;5093286;28;20460;-74
2022/11/15 08:33:42;;;;;;;80.70;30.47;;;;;;;6.16;100.00;95367.28;5093150;28;20993;-74
2022/11/15 08:36:15;;;;;;;67.13;31.77;;;;;;;6.19;100.00;95360.13;5093524;28;20503;-75
2022/11/15 08:38:41;;;;;;;59.73;30.00;;;;;;;6.24;100.00;95366.81;5092738;28;20512;-74
2022/11/15 08:41:13;;;;;;;64.53;33.40;;;;;;;6.28;100.00;95363.09;5073745;28;20444;-75
2022/11/15 08:43:40;;;;;;;69.13;33.50;;;;;;;6.38;100.00;95364.22;5093264;28;20489;-74
2022/11/15 08:46:06;;;;;;;84.43;36.83;;;;;;;6.35;100.00;95357.41;5092995;28;20441;-74
2022/11/15 08:48:33;;;;;;;76.47;34.77;;;;;;;6.24;100.00;95353.78;5093984;28;20446;-75
2022/11/15 08:51:00;;;;;;;76.57;37.67;;;;;;;6.29;100.00;95355.19;5093697;28;20469;-75
2022/11/15 08:53:28;;;;;;;69.77;34.80;;;;;;;6.28;100.00;95347.44;5093449;28;20884;-75
2022/11/15 08:55:55;;;;;;;67.43;35.77;;;;;;;6.22;100.00;95344.28;5093305;28;20451;-75
2022/11/15 08:58:22;;;;;;;69.70;34.80;;;;;;;6.21;100.00;95342.63;5093786;28;20449;-75
2022/11/15 09:00:48;;;;;;;68.87;31.37;;;;;;;5.87;100.00;95332.53;5093075;28;20484;-74
2022/11/15 09:03:15;;;;;;;71.30;34.43;;;;;;;5.74;100.00;95341.97;5093614;28;20496;-78
2022/11/15 09:05:42;;;;;;;76.30;37.13;;;;;;;5.81;100.00;95325.91;5093070;28;20460;-76
2022/11/15 09:08:09;;;;;;;74.77;41.43;;;;;;;5.91;100.00;95326.22;5093363;28;20928;-75
2022/11/15 09:10:37;;;;;;;76.97;38.30;;;;;;;5.97;100.00;95332.84;5093250;28;20510;-75
2022/11/15 09:13:04;;;;;;;78.10;40.00;;;;;;;6.19;100.00;95328.00;5093228;28;20446;-75
2022/11/15 09:15:31;;;;;;;95.73;41.93;;;;;;;6.31;100.00;95322.03;5092819;28;20960;-75
2022/11/15 09:17:59;;;;;;;78.77;41.07;;;;;;;6.42;100.00;95313.59;5093013;28;20453;-75
2022/11/15 09:20:26;;;;;;;102.80;44.10;;;;;;;6.50;100.00;95311.34;5092667;28;20451;-75
2022/11/15 09:22:52;;;;;;;74.17;36.33;;;;;;;6.58;100.00;95309.06;5091620;28;20538;-74
2022/11/15 09:25:19;;;;;;;81.90;36.83;;;;;;;6.44;100.00;95306.50;5092425;28;20448;-74
2022/11/15 09:27:47;;;;;;;73.50;36.53;;;;;;;6.48;100.00;95303.59;5092995;28;20450;-75
2022/11/15 09:30:14;;;;;;;83.63;38.30;;;;;;;6.54;100.00;95307.59;5092553;28;20522;-75
2022/11/15 09:32:41;;;;;;;76.33;37.93;;;;;;;6.49;100.00;95300.06;5092034;28;20472;-76
2022/11/15 09:35:10;;;;;;;72.30;38.07;;;;;;;6.60;100.00;95298.53;5056022;28;20439;-76
2022/11/15 09:37:37;;;;;;;74.17;38.67;;;;;;;6.64;100.00;95287.00;5091773;28;20445;-75
2022/11/15 09:40:05;;;;;;;84.57;37.10;;;;;;;6.64;100.00;95281.78;5092123;28;20450;-75
2022/11/15 09:42:49;;;;;;;116.03;50.80;;;;;;;6.70;100.00;95279.63;5091968;28;20449;-75
2022/11/15 09:45:21;;;;;;;88.20;42.17;;;;;;;6.82;100.00;95280.63;5091632;28;20459;-75
2022/11/15 09:48:12;;;;;;;77.10;37.67;;;;;;;6.90;100.00;95278.34;5091615;28;20454;-75
2022/11/15 09:50:43;;;;;;;68.47;35.97;;;;;;;6.81;100.00;95273.72;5091954;28;20449;-76
2022/11/15 09:53:14;;;;;;;67.73;34.60;;;;;;;6.87;100.00;95268.13;5091948;28;20450;-75
2022/11/15 09:55:59;;;;;;;72.70;34.90;;;;;;;6.78;100.00;95263.50;5091122;28;20871;-75
2022/11/15 09:58:31;;;;;;;70.83;35.83;;;;;;;6.70;100.00;95270.97;5072703;28;20937;-74
2022/11/15 10:01:05;;;;;;;63.07;31.93;;;;;;;6.73;100.00;95262.97;5091676;28;20476;-76
2022/11/15 10:03:35;;;;;;;58.70;32.33;;;;;;;6.82;100.00;95259.75;5071580;28;20502;-75
2022/11/15 10:06:05;;;;;;;63.67;30.20;;;;;;;6.92;100.00;95254.78;5072031;28;20443;-75
2022/11/15 10:08:47;;;;;;;58.63;31.20;;;;;;;6.96;100.00;95257.09;5071556;28;20448;-77
2022/11/15 10:11:18;;;;;;;74.53;36.17;;;;;;;7.08;100.00;95252.84;5071835;28;20439;-75
2022/11/15 10:13:49;;;;;;;64.23;37.83;;;;;;;7.19;100.00;95246.91;5020071;28;20451;-76
2022/11/15 10:16:40;;;;;;;68.60;37.80;;;;;;;7.29;100.00;95245.41;5071369;28;20447;-75
2022/11/15 10:19:20;;;;;;;88.77;44.90;;;;;;;7.12;100.00;95242.13;5028897;28;20865;-75
2022/11/15 10:21:58;;;;;;;79.97;42.90;;;;;;;7.31;100.00;95238.31;5029555;28;20482;-75
2022/11/15 10:24:29;;;;;;;68.80;38.73;;;;;;;7.01;100.00;95238.53;5029578;28;20488;-75
2022/11/15 10:26:56;;;;;;;70.20;37.07;;;;;;;7.21;100.00;95227.59;5029601;28;20482;-74
2022/11/15 10:29:24;;;;;;;80.57;37.73;;;;;;;7.06;100.00;95226.03;5029796;28;20452;-74
2022/11/15 10:31:53;;;;;;;65.80;36.90;;;;;;;7.13;100.00;95222.91;5029505;28;20451;-75
2022/11/15 10:34:21;;;;;;;78.00;36.90;;;;;;;7.14;100.00;95224.56;5029882;28;20446;-75
2022/11/15 10:36:56;;;;;;;69.27;34.60;;;;;;;7.07;100.00;95217.25;5029317;28;20458;-74
2022/11/15 10:39:23;;;;;;;71.27;33.93;;;;;;;6.97;100.00;95214.44;5029618;28;20446;-75
2022/11/15 10:41:50;;;;;;;70.50;37.97;;;;;;;7.01;100.00;95202.00;5029634;28;20449;-75
2022/11/15 10:44:29;;;;;;;67.30;34.37;;;;;;;7.09;100.00;95195.34;5000845;28;21034;-75
2022/11/15 10:47:24;;;;;;;65.70;36.30;;;;;;;7.37;100.00;95194.34;5049233;28;20481;-74
2022/11/15 10:49:57;;;;;;;63.53;34.67;;;;;;;7.58;100.00;95196.44;5049502;28;20959;-74
2022/11/15 10:52:25;;;;;;;70.20;34.70;;;;;;;7.43;100.00;95185.25;5049360;28;20440;-74
2022/11/15 10:54:55;;;;;;;87.43;38.00;;;;;;;7.34;100.00;95189.31;5049295;28;20857;-75
2022/11/15 10:57:24;;;;;;;65.80;34.37;;;;;;;7.49;100.00;95187.44;5069433;28;20514;-75
2022/11/15 10:59:54;;;;;;;76.03;36.97;;;;;;;7.53;100.00;95185.50;5071710;28;20564;-76
2022/11/15 11:02:46;;;;;;;66.80;34.33;;;;;;;7.40;100.00;95180.25;5071541;28;20871;-75
2022/11/15 11:05:27;;;;;;;73.33;33.70;;;;;;;7.35;100.00;95167.50;5071490;28;20484;-75
2022/11/15 11:07:58;;;;;;;69.63;36.90;;;;;;;7.57;100.00;95159.06;5072962;28;20504;-75
2022/11/15 11:10:24;;;;;;;69.97;38.90;;;;;;;7.58;100.00;95159.88;5075221;28;20447;-74
2022/11/15 11:12:51;;;;;;;70.33;35.50;;;;;;;7.53;100.00;95159.38;5075137;28;20455;-75
2022/11/15 11:15:18;;;;;;;70.73;33.97;;;;;;;7.49;100.00;95144.84;5075441;28;20490;-75
2022/11/15 11:17:58;;;;;;;73.43;35.40;;;;;;;7.65;100.00;95145.47;5075260;28;20792;-76
2022/11/15 11:20:31;;;;;;;68.47;36.10;;;;;;;7.74;100.00;95144.81;5075114;28;20926;-75
2022/11/15 11:23:12;;;;;;;73.03;36.60;;;;;;;7.79;100.00;95137.47;5041287;28;20452;-75
2022/11/15 11:25:49;;;;;;;69.60;37.70;;;;;;;7.80;100.00;95131.31;5075123;28;20455;-76
2022/11/15 11:28:31;;;;;;;68.77;35.47;;;;;;;7.92;100.00;95127.03;5075306;28;20447;-75
2022/11/15 11:31:08;;;;;;;67.27;37.30;;;;;;;7.92;100.00;95116.56;5074975;28;20448;-75
2022/11/15 11:33:45;;;;;;;65.93;33.80;;;;;;;8.06;100.00;95114.63;5074587;28;20448;-76
2022/11/15 11:36:23;;;;;;;64.73;33.13;;;;;;;7.94;99.40;95115.53;5074375;28;20498;-75
2022/11/15 11:38:58;;;;;;;61.10;31.83;;;;;;;7.87;100.00;95105.63;5074483;28;20497;-76